sensor_id;sensor_type;location;lat;lon;timestamp;P1;durP1;ratioP1;P2;durP2;ratioP2
3333;SDS011;1679;50.392;8.008;2023-08-06T00:00:25;4.97;;;4.67;;
3333;SDS011;1679;50.392;8.008;2023-08-06T00:02:50;5.00;;;4.53;;
3333;SDS011;1679;50.392;8.008;2023-08-06T00:05:16;4.10;;;3.80;;
3333;SDS011;1679;50.392;8.008;2023-08-06T00:07:48;4.47;;;4.17;;
3333;SDS011;1679;50.392;8.008;2023-08-06T00:10:14;4.20;;;4.00;;
3333;SDS011;1679;50.392;8.008;2023-08-06T00:12:40;5.17;;;4.10;;
3333;SDS011;1679;50.392;8.008;2023-08-06T00:15:05;4.40;;;4.20;;
3333;SDS011;1679;50.392;8.008;2023-08-06T00:17:32;4.83;;;4.37;;
3333;SDS011;1679;50.392;8.008;2023-08-06T00:19:58;4.43;;;4.03;;
3333;SDS011;1679;50.392;8.008;2023-08-06T00:22:29;4.27;;;3.90;;
3333;SDS011;1679;50.392;8.008;2023-08-06T00:24:55;6.53;;;4.50;;
3333;SDS011;1679;50.392;8.008;2023-08-06T00:27:22;4.40;;;4.00;;
3333;SDS011;1679;50.392;8.008;2023-08-06T00:29:48;4.80;;;4.20;;
3333;SDS011;1679;50.392;8.008;2023-08-06T00:32:13;4.80;;;4.20;;
3333;SDS011;1679;50.392;8.008;2023-08-06T00:34:39;5.57;;;5.07;;
3333;SDS011;1679;50.392;8.008;2023-08-06T00:37:04;4.30;;;4.00;;
3333;SDS011;1679;50.392;8.008;2023-08-06T00:39:30;4.87;;;4.60;;
3333;SDS011;1679;50.392;8.008;2023-08-06T00:41:58;4.93;;;4.63;;
3333;SDS011;1679;50.392;8.008;2023-08-06T00:44:25;5.30;;;4.80;;
3333;SDS011;1679;50.392;8.008;2023-08-06T00:46:50;8.70;;;5.50;;
3333;SDS011;1679;50.392;8.008;2023-08-06T00:49:16;5.30;;;4.80;;
3333;SDS011;1679;50.392;8.008;2023-08-06T00:51:42;5.50;;;5.10;;
3333;SDS011;1679;50.392;8.008;2023-08-06T00:54:08;5.43;;;5.03;;
3333;SDS011;1679;50.392;8.008;2023-08-06T00:56:35;5.20;;;4.90;;
3333;SDS011;1679;50.392;8.008;2023-08-06T00:59:06;5.50;;;5.00;;
3333;SDS011;1679;50.392;8.008;2023-08-06T01:01:31;6.30;;;4.80;;
3333;SDS011;1679;50.392;8.008;2023-08-06T01:03:57;5.20;;;4.87;;
3333;SDS011;1679;50.392;8.008;2023-08-06T01:09:27;4.87;;;4.37;;
3333;SDS011;1679;50.392;8.008;2023-08-06T01:17:30;4.40;;;4.07;;
3333;SDS011;1679;50.392;8.008;2023-08-06T01:19:56;4.40;;;4.10;;
3333;SDS011;1679;50.392;8.008;2023-08-06T01:22:22;3.97;;;3.67;;
3333;SDS011;1679;50.392;8.008;2023-08-06T01:24:48;4.33;;;3.93;;
3333;SDS011;1679;50.392;8.008;2023-08-06T01:27:28;5.90;;;3.87;;
3333;SDS011;1679;50.392;8.008;2023-08-06T01:30:08;4.60;;;3.70;;
3333;SDS011;1679;50.392;8.008;2023-08-06T01:32:39;3.93;;;3.63;;
3333;SDS011;1679;50.392;8.008;2023-08-06T01:35:08;4.37;;;4.00;;
3333;SDS011;1679;50.392;8.008;2023-08-06T01:37:38;4.30;;;3.90;;
3333;SDS011;1679;50.392;8.008;2023-08-06T01:40:14;5.07;;;4.67;;
3333;SDS011;1679;50.392;8.008;2023-08-06T01:42:40;4.53;;;4.20;;
3333;SDS011;1679;50.392;8.008;2023-08-06T01:45:07;3.73;;;3.53;;
3333;SDS011;1679;50.392;8.008;2023-08-06T01:47:33;3.97;;;3.77;;
3333;SDS011;1679;50.392;8.008;2023-08-06T01:50:01;6.03;;;3.97;;
3333;SDS011;1679;50.392;8.008;2023-08-06T01:52:27;4.20;;;3.60;;
3333;SDS011;1679;50.392;8.008;2023-08-06T01:54:53;4.00;;;3.80;;
3333;SDS011;1679;50.392;8.008;2023-08-06T01:57:19;5.40;;;4.00;;
3333;SDS011;1679;50.392;8.008;2023-08-06T01:59:44;4.00;;;3.70;;
3333;SDS011;1679;50.392;8.008;2023-08-06T02:02:09;6.27;;;4.50;;
3333;SDS011;1679;50.392;8.008;2023-08-06T02:04:35;4.80;;;3.90;;
3333;SDS011;1679;50.392;8.008;2023-08-06T02:07:02;4.83;;;3.53;;
3333;SDS011;1679;50.392;8.008;2023-08-06T02:09:28;5.23;;;4.80;;
3333;SDS011;1679;50.392;8.008;2023-08-06T02:11:55;4.57;;;4.23;;
3333;SDS011;1679;50.392;8.008;2023-08-06T02:14:20;4.20;;;3.90;;
3333;SDS011;1679;50.392;8.008;2023-08-06T02:16:46;3.90;;;3.60;;
3333;SDS011;1679;50.392;8.008;2023-08-06T02:19:14;4.10;;;3.80;;
3333;SDS011;1679;50.392;8.008;2023-08-06T02:21:39;4.77;;;4.47;;
3333;SDS011;1679;50.392;8.008;2023-08-06T02:24:05;4.50;;;4.07;;
3333;SDS011;1679;50.392;8.008;2023-08-06T02:26:30;4.87;;;4.57;;
3333;SDS011;1679;50.392;8.008;2023-08-06T02:28:56;4.13;;;3.40;;
3333;SDS011;1679;50.392;8.008;2023-08-06T02:31:21;4.03;;;3.83;;
3333;SDS011;1679;50.392;8.008;2023-08-06T02:33:47;4.27;;;3.87;;
3333;SDS011;1679;50.392;8.008;2023-08-06T02:36:14;4.50;;;4.20;;
3333;SDS011;1679;50.392;8.008;2023-08-06T02:38:41;4.40;;;4.00;;
3333;SDS011;1679;50.392;8.008;2023-08-06T02:41:06;3.47;;;3.27;;
3333;SDS011;1679;50.392;8.008;2023-08-06T02:43:32;3.90;;;3.10;;
3333;SDS011;1679;50.392;8.008;2023-08-06T02:45:58;4.03;;;3.60;;
3333;SDS011;1679;50.392;8.008;2023-08-06T02:48:24;6.13;;;3.90;;
3333;SDS011;1679;50.392;8.008;2023-08-06T02:50:50;3.83;;;3.60;;
3333;SDS011;1679;50.392;8.008;2023-08-06T02:53:15;3.80;;;3.50;;
3333;SDS011;1679;50.392;8.008;2023-08-06T02:55:45;3.90;;;3.60;;
3333;SDS011;1679;50.392;8.008;2023-08-06T02:58:13;3.67;;;3.20;;
3333;SDS011;1679;50.392;8.008;2023-08-06T03:00:47;3.23;;;3.13;;
3333;SDS011;1679;50.392;8.008;2023-08-06T03:03:24;3.60;;;3.40;;
3333;SDS011;1679;50.392;8.008;2023-08-06T03:05:52;3.30;;;3.10;;
3333;SDS011;1679;50.392;8.008;2023-08-06T03:08:19;4.00;;;3.80;;
3333;SDS011;1679;50.392;8.008;2023-08-06T03:10:47;3.97;;;3.67;;
3333;SDS011;1679;50.392;8.008;2023-08-06T03:13:16;5.20;;;4.80;;
3333;SDS011;1679;50.392;8.008;2023-08-06T03:15:42;4.27;;;3.87;;
3333;SDS011;1679;50.392;8.008;2023-08-06T03:18:08;4.20;;;4.00;;
3333;SDS011;1679;50.392;8.008;2023-08-06T03:20:34;3.87;;;3.57;;
3333;SDS011;1679;50.392;8.008;2023-08-06T03:22:59;4.50;;;4.20;;
3333;SDS011;1679;50.392;8.008;2023-08-06T03:25:25;4.60;;;4.17;;
3333;SDS011;1679;50.392;8.008;2023-08-06T03:27:50;4.53;;;4.00;;
3333;SDS011;1679;50.392;8.008;2023-08-06T03:30:16;4.40;;;4.00;;
3333;SDS011;1679;50.392;8.008;2023-08-06T03:32:42;3.73;;;3.53;;
3333;SDS011;1679;50.392;8.008;2023-08-06T03:35:08;4.00;;;3.33;;
3333;SDS011;1679;50.392;8.008;2023-08-06T03:37:33;3.57;;;3.33;;
3333;SDS011;1679;50.392;8.008;2023-08-06T03:39:59;4.53;;;3.50;;
3333;SDS011;1679;50.392;8.008;2023-08-06T03:42:24;3.57;;;3.27;;
3333;SDS011;1679;50.392;8.008;2023-08-06T03:44:50;4.60;;;3.70;;
3333;SDS011;1679;50.392;8.008;2023-08-06T03:47:15;3.63;;;3.43;;
3333;SDS011;1679;50.392;8.008;2023-08-06T03:49:41;3.97;;;3.43;;
3333;SDS011;1679;50.392;8.008;2023-08-06T03:52:09;5.00;;;3.63;;
3333;SDS011;1679;50.392;8.008;2023-08-06T03:54:34;3.60;;;3.40;;
3333;SDS011;1679;50.392;8.008;2023-08-06T03:57:01;3.97;;;3.23;;
3333;SDS011;1679;50.392;8.008;2023-08-06T03:59:28;3.60;;;3.40;;
3333;SDS011;1679;50.392;8.008;2023-08-06T04:01:53;4.83;;;3.20;;
3333;SDS011;1679;50.392;8.008;2023-08-06T04:04:19;3.57;;;3.37;;
3333;SDS011;1679;50.392;8.008;2023-08-06T04:06:44;3.70;;;3.50;;
3333;SDS011;1679;50.392;8.008;2023-08-06T04:09:10;4.07;;;3.60;;
3333;SDS011;1679;50.392;8.008;2023-08-06T04:11:35;4.03;;;3.50;;
3333;SDS011;1679;50.392;8.008;2023-08-06T04:14:02;3.90;;;3.70;;
3333;SDS011;1679;50.392;8.008;2023-08-06T04:16:28;3.87;;;3.40;;
3333;SDS011;1679;50.392;8.008;2023-08-06T04:18:54;3.53;;;3.23;;
3333;SDS011;1679;50.392;8.008;2023-08-06T04:21:21;3.60;;;3.40;;
3333;SDS011;1679;50.392;8.008;2023-08-06T04:23:47;3.97;;;3.57;;
3333;SDS011;1679;50.392;8.008;2023-08-06T04:26:12;4.33;;;3.50;;
3333;SDS011;1679;50.392;8.008;2023-08-06T04:28:38;3.63;;;3.37;;
3333;SDS011;1679;50.392;8.008;2023-08-06T04:31:03;3.57;;;3.27;;
3333;SDS011;1679;50.392;8.008;2023-08-06T04:33:29;4.07;;;3.40;;
3333;SDS011;1679;50.392;8.008;2023-08-06T04:35:54;4.40;;;4.00;;
3333;SDS011;1679;50.392;8.008;2023-08-06T04:38:24;4.20;;;3.90;;
3333;SDS011;1679;50.392;8.008;2023-08-06T04:40:52;4.87;;;4.40;;
3333;SDS011;1679;50.392;8.008;2023-08-06T04:43:18;4.13;;;3.47;;
3333;SDS011;1679;50.392;8.008;2023-08-06T04:45:48;3.90;;;3.60;;
3333;SDS011;1679;50.392;8.008;2023-08-06T04:48:14;3.63;;;3.43;;
3333;SDS011;1679;50.392;8.008;2023-08-06T04:50:43;5.00;;;3.60;;
3333;SDS011;1679;50.392;8.008;2023-08-06T04:53:12;4.03;;;3.43;;
3333;SDS011;1679;50.392;8.008;2023-08-06T04:55:38;3.93;;;3.53;;
3333;SDS011;1679;50.392;8.008;2023-08-06T04:58:04;4.07;;;3.77;;
3333;SDS011;1679;50.392;8.008;2023-08-06T05:00:30;4.20;;;3.93;;
3333;SDS011;1679;50.392;8.008;2023-08-06T05:02:56;5.47;;;4.07;;
3333;SDS011;1679;50.392;8.008;2023-08-06T05:05:22;4.07;;;3.60;;
3333;SDS011;1679;50.392;8.008;2023-08-06T05:07:48;6.03;;;3.80;;
3333;SDS011;1679;50.392;8.008;2023-08-06T05:10:14;4.30;;;3.97;;
3333;SDS011;1679;50.392;8.008;2023-08-06T05:12:40;3.80;;;3.50;;
3333;SDS011;1679;50.392;8.008;2023-08-06T05:15:06;7.70;;;4.77;;
3333;SDS011;1679;50.392;8.008;2023-08-06T05:17:32;4.27;;;3.97;;
3333;SDS011;1679;50.392;8.008;2023-08-06T05:19:58;4.00;;;3.80;;
3333;SDS011;1679;50.392;8.008;2023-08-06T05:22:24;3.73;;;3.53;;
3333;SDS011;1679;50.392;8.008;2023-08-06T05:24:51;4.30;;;4.00;;
3333;SDS011;1679;50.392;8.008;2023-08-06T05:27:17;4.50;;;4.10;;
3333;SDS011;1679;50.392;8.008;2023-08-06T05:29:44;4.80;;;3.97;;
3333;SDS011;1679;50.392;8.008;2023-08-06T05:32:10;3.93;;;3.10;;
3333;SDS011;1679;50.392;8.008;2023-08-06T05:34:36;3.07;;;2.70;;
3333;SDS011;1679;50.392;8.008;2023-08-06T05:37:04;3.60;;;3.40;;
3333;SDS011;1679;50.392;8.008;2023-08-06T05:39:29;3.47;;;3.17;;
3333;SDS011;1679;50.392;8.008;2023-08-06T05:41:55;3.40;;;3.10;;
3333;SDS011;1679;50.392;8.008;2023-08-06T05:44:21;3.50;;;3.30;;
3333;SDS011;1679;50.392;8.008;2023-08-06T05:46:48;3.83;;;3.03;;
3333;SDS011;1679;50.392;8.008;2023-08-06T05:49:14;4.57;;;3.67;;
3333;SDS011;1679;50.392;8.008;2023-08-06T05:51:41;3.63;;;3.37;;
3333;SDS011;1679;50.392;8.008;2023-08-06T05:54:06;6.80;;;4.07;;
3333;SDS011;1679;50.392;8.008;2023-08-06T05:56:32;4.40;;;3.60;;
3333;SDS011;1679;50.392;8.008;2023-08-06T05:58:58;4.10;;;2.97;;
3333;SDS011;1679;50.392;8.008;2023-08-06T06:01:24;4.73;;;2.83;;
3333;SDS011;1679;50.392;8.008;2023-08-06T06:03:49;2.80;;;2.60;;
3333;SDS011;1679;50.392;8.008;2023-08-06T06:06:15;3.43;;;3.10;;
3333;SDS011;1679;50.392;8.008;2023-08-06T06:08:41;4.40;;;3.03;;
3333;SDS011;1679;50.392;8.008;2023-08-06T06:11:10;4.03;;;2.50;;
3333;SDS011;1679;50.392;8.008;2023-08-06T06:13:35;2.90;;;2.70;;
3333;SDS011;1679;50.392;8.008;2023-08-06T06:16:01;2.90;;;2.13;;
3333;SDS011;1679;50.392;8.008;2023-08-06T06:18:26;2.90;;;2.70;;
3333;SDS011;1679;50.392;8.008;2023-08-06T06:20:53;2.47;;;2.37;;
3333;SDS011;1679;50.392;8.008;2023-08-06T06:23:18;1.93;;;1.83;;
3333;SDS011;1679;50.392;8.008;2023-08-06T06:25:48;2.00;;;1.90;;
3333;SDS011;1679;50.392;8.008;2023-08-06T06:28:18;2.37;;;1.87;;
3333;SDS011;1679;50.392;8.008;2023-08-06T06:30:43;2.97;;;2.43;;
3333;SDS011;1679;50.392;8.008;2023-08-06T06:33:10;2.47;;;1.97;;
3333;SDS011;1679;50.392;8.008;2023-08-06T06:35:36;1.70;;;1.60;;
3333;SDS011;1679;50.392;8.008;2023-08-06T06:38:02;1.97;;;1.83;;
3333;SDS011;1679;50.392;8.008;2023-08-06T06:40:29;1.57;;;1.47;;
3333;SDS011;1679;50.392;8.008;2023-08-06T06:42:56;4.13;;;1.60;;
3333;SDS011;1679;50.392;8.008;2023-08-06T06:45:21;1.73;;;1.50;;
3333;SDS011;1679;50.392;8.008;2023-08-06T06:47:47;1.57;;;1.37;;
3333;SDS011;1679;50.392;8.008;2023-08-06T06:50:12;1.60;;;1.50;;
3333;SDS011;1679;50.392;8.008;2023-08-06T06:52:38;1.37;;;1.27;;
3333;SDS011;1679;50.392;8.008;2023-08-06T06:55:04;1.80;;;1.40;;
3333;SDS011;1679;50.392;8.008;2023-08-06T06:57:29;1.57;;;1.47;;
3333;SDS011;1679;50.392;8.008;2023-08-06T06:59:55;2.13;;;1.50;;
3333;SDS011;1679;50.392;8.008;2023-08-06T07:02:20;1.37;;;1.23;;
3333;SDS011;1679;50.392;8.008;2023-08-06T07:04:46;1.40;;;1.30;;
3333;SDS011;1679;50.392;8.008;2023-08-06T07:07:12;0.93;;;0.83;;
3333;SDS011;1679;50.392;8.008;2023-08-06T07:09:37;1.47;;;1.30;;
3333;SDS011;1679;50.392;8.008;2023-08-06T07:12:03;1.03;;;0.93;;
3333;SDS011;1679;50.392;8.008;2023-08-06T07:14:30;4.27;;;1.40;;
3333;SDS011;1679;50.392;8.008;2023-08-06T07:16:56;1.10;;;1.00;;
3333;SDS011;1679;50.392;8.008;2023-08-06T07:19:23;1.23;;;1.13;;
3333;SDS011;1679;50.392;8.008;2023-08-06T07:21:48;1.20;;;0.80;;
3333;SDS011;1679;50.392;8.008;2023-08-06T07:24:15;1.00;;;0.80;;
3333;SDS011;1679;50.392;8.008;2023-08-06T07:26:40;1.33;;;0.77;;
3333;SDS011;1679;50.392;8.008;2023-08-06T07:29:06;1.20;;;0.63;;
3333;SDS011;1679;50.392;8.008;2023-08-06T07:31:33;1.70;;;0.80;;
3333;SDS011;1679;50.392;8.008;2023-08-06T07:33:59;0.90;;;0.50;;
3333;SDS011;1679;50.392;8.008;2023-08-06T07:36:24;0.90;;;0.60;;
3333;SDS011;1679;50.392;8.008;2023-08-06T07:38:50;4.20;;;0.60;;
3333;SDS011;1679;50.392;8.008;2023-08-06T07:41:20;1.30;;;0.60;;
3333;SDS011;1679;50.392;8.008;2023-08-06T07:43:47;2.17;;;0.60;;
3333;SDS011;1679;50.392;8.008;2023-08-06T07:46:12;0.90;;;0.60;;
3333;SDS011;1679;50.392;8.008;2023-08-06T07:48:38;1.00;;;0.60;;
3333;SDS011;1679;50.392;8.008;2023-08-06T07:51:04;0.80;;;0.40;;
3333;SDS011;1679;50.392;8.008;2023-08-06T07:53:29;0.90;;;0.40;;
3333;SDS011;1679;50.392;8.008;2023-08-06T07:55:55;1.47;;;0.73;;
3333;SDS011;1679;50.392;8.008;2023-08-06T07:58:23;1.83;;;0.80;;
3333;SDS011;1679;50.392;8.008;2023-08-06T08:00:50;3.27;;;0.60;;
3333;SDS011;1679;50.392;8.008;2023-08-06T08:03:17;1.57;;;0.50;;
3333;SDS011;1679;50.392;8.008;2023-08-06T08:05:44;1.47;;;0.40;;
3333;SDS011;1679;50.392;8.008;2023-08-06T08:08:12;1.03;;;0.50;;
3333;SDS011;1679;50.392;8.008;2023-08-06T08:10:38;0.83;;;0.50;;
3333;SDS011;1679;50.392;8.008;2023-08-06T08:13:07;3.03;;;0.50;;
3333;SDS011;1679;50.392;8.008;2023-08-06T08:15:33;1.47;;;0.40;;
3333;SDS011;1679;50.392;8.008;2023-08-06T08:17:59;0.90;;;0.60;;
3333;SDS011;1679;50.392;8.008;2023-08-06T08:20:25;0.80;;;0.40;;
3333;SDS011;1679;50.392;8.008;2023-08-06T08:22:57;0.80;;;0.43;;
3333;SDS011;1679;50.392;8.008;2023-08-06T08:25:23;0.80;;;0.50;;
3333;SDS011;1679;50.392;8.008;2023-08-06T08:27:49;0.93;;;0.40;;
3333;SDS011;1679;50.392;8.008;2023-08-06T08:30:14;0.83;;;0.40;;
3333;SDS011;1679;50.392;8.008;2023-08-06T08:32:40;1.37;;;0.50;;
3333;SDS011;1679;50.392;8.008;2023-08-06T08:35:06;1.63;;;0.40;;
3333;SDS011;1679;50.392;8.008;2023-08-06T08:37:31;1.57;;;0.50;;
3333;SDS011;1679;50.392;8.008;2023-08-06T08:39:57;0.80;;;0.50;;
3333;SDS011;1679;50.392;8.008;2023-08-06T08:42:22;0.70;;;0.40;;
3333;SDS011;1679;50.392;8.008;2023-08-06T08:44:48;0.90;;;0.60;;
3333;SDS011;1679;50.392;8.008;2023-08-06T08:47:15;1.23;;;0.60;;
3333;SDS011;1679;50.392;8.008;2023-08-06T08:49:41;1.87;;;0.60;;
3333;SDS011;1679;50.392;8.008;2023-08-06T08:52:08;0.80;;;0.50;;
3333;SDS011;1679;50.392;8.008;2023-08-06T08:54:38;0.90;;;0.50;;
3333;SDS011;1679;50.392;8.008;2023-08-06T08:57:04;1.33;;;0.60;;
3333;SDS011;1679;50.392;8.008;2023-08-06T08:59:30;1.53;;;0.50;;
3333;SDS011;1679;50.392;8.008;2023-08-06T09:01:57;0.90;;;0.50;;
3333;SDS011;1679;50.392;8.008;2023-08-06T09:04:25;1.43;;;0.60;;
3333;SDS011;1679;50.392;8.008;2023-08-06T09:06:53;0.80;;;0.60;;
3333;SDS011;1679;50.392;8.008;2023-08-06T09:09:22;1.00;;;0.53;;
3333;SDS011;1679;50.392;8.008;2023-08-06T09:11:51;1.47;;;0.63;;
3333;SDS011;1679;50.392;8.008;2023-08-06T09:14:19;0.80;;;0.40;;
3333;SDS011;1679;50.392;8.008;2023-08-06T09:16:45;0.80;;;0.70;;
3333;SDS011;1679;50.392;8.008;2023-08-06T09:19:12;1.97;;;0.50;;
3333;SDS011;1679;50.392;8.008;2023-08-06T09:21:41;0.70;;;0.40;;
3333;SDS011;1679;50.392;8.008;2023-08-06T09:24:11;1.43;;;0.60;;
3333;SDS011;1679;50.392;8.008;2023-08-06T09:26:38;0.80;;;0.43;;
3333;SDS011;1679;50.392;8.008;2023-08-06T09:29:04;1.00;;;0.60;;
3333;SDS011;1679;50.392;8.008;2023-08-06T09:31:32;1.03;;;0.40;;
3333;SDS011;1679;50.392;8.008;2023-08-06T09:34:11;1.17;;;0.70;;
3333;SDS011;1679;50.392;8.008;2023-08-06T09:36:41;1.03;;;0.43;;
3333;SDS011;1679;50.392;8.008;2023-08-06T09:39:13;1.67;;;0.57;;
3333;SDS011;1679;50.392;8.008;2023-08-06T09:41:40;0.70;;;0.50;;
3333;SDS011;1679;50.392;8.008;2023-08-06T09:44:13;0.80;;;0.50;;
3333;SDS011;1679;50.392;8.008;2023-08-06T09:46:50;0.80;;;0.50;;
3333;SDS011;1679;50.392;8.008;2023-08-06T09:49:21;0.80;;;0.60;;
3333;SDS011;1679;50.392;8.008;2023-08-06T09:51:51;1.37;;;0.70;;
3333;SDS011;1679;50.392;8.008;2023-08-06T09:54:18;0.80;;;0.50;;
3333;SDS011;1679;50.392;8.008;2023-08-06T09:56:44;0.80;;;0.40;;
3333;SDS011;1679;50.392;8.008;2023-08-06T09:59:10;0.90;;;0.50;;
3333;SDS011;1679;50.392;8.008;2023-08-06T10:01:38;3.03;;;0.50;;
3333;SDS011;1679;50.392;8.008;2023-08-06T10:04:04;0.80;;;0.40;;
3333;SDS011;1679;50.392;8.008;2023-08-06T10:06:35;0.83;;;0.60;;
3333;SDS011;1679;50.392;8.008;2023-08-06T10:09:01;0.90;;;0.40;;
3333;SDS011;1679;50.392;8.008;2023-08-06T10:11:27;0.80;;;0.40;;
3333;SDS011;1679;50.392;8.008;2023-08-06T10:13:55;0.70;;;0.50;;
3333;SDS011;1679;50.392;8.008;2023-08-06T10:16:34;0.90;;;0.70;;
3333;SDS011;1679;50.392;8.008;2023-08-06T10:19:02;1.30;;;0.80;;
3333;SDS011;1679;50.392;8.008;2023-08-06T10:21:33;1.40;;;0.60;;
3333;SDS011;1679;50.392;8.008;2023-08-06T10:23:58;0.77;;;0.57;;
3333;SDS011;1679;50.392;8.008;2023-08-06T10:26:27;1.00;;;0.50;;
3333;SDS011;1679;50.392;8.008;2023-08-06T10:28:53;1.20;;;0.67;;
3333;SDS011;1679;50.392;8.008;2023-08-06T10:31:19;0.90;;;0.60;;
3333;SDS011;1679;50.392;8.008;2023-08-06T10:33:46;0.90;;;0.80;;
3333;SDS011;1679;50.392;8.008;2023-08-06T10:36:12;3.80;;;1.77;;
3333;SDS011;1679;50.392;8.008;2023-08-06T10:38:45;2.03;;;1.40;;
3333;SDS011;1679;50.392;8.008;2023-08-06T10:41:21;1.40;;;1.30;;
3333;SDS011;1679;50.392;8.008;2023-08-06T10:44:06;1.30;;;1.20;;
3333;SDS011;1679;50.392;8.008;2023-08-06T10:46:33;1.93;;;1.17;;
3333;SDS011;1679;50.392;8.008;2023-08-06T10:48:59;1.83;;;1.20;;
3333;SDS011;1679;50.392;8.008;2023-08-06T10:51:24;1.37;;;1.10;;
3333;SDS011;1679;50.392;8.008;2023-08-06T10:53:50;3.10;;;0.70;;
3333;SDS011;1679;50.392;8.008;2023-08-06T10:56:17;2.30;;;0.70;;
3333;SDS011;1679;50.392;8.008;2023-08-06T10:58:44;1.53;;;0.50;;
3333;SDS011;1679;50.392;8.008;2023-08-06T11:01:11;0.90;;;0.70;;
3333;SDS011;1679;50.392;8.008;2023-08-06T11:03:37;0.70;;;0.40;;
3333;SDS011;1679;50.392;8.008;2023-08-06T11:06:03;0.77;;;0.40;;
3333;SDS011;1679;50.392;8.008;2023-08-06T11:08:33;2.13;;;0.40;;
3333;SDS011;1679;50.392;8.008;2023-08-06T11:11:07;0.80;;;0.40;;
3333;SDS011;1679;50.392;8.008;2023-08-06T11:13:35;0.77;;;0.40;;
3333;SDS011;1679;50.392;8.008;2023-08-06T11:16:02;0.67;;;0.30;;
3333;SDS011;1679;50.392;8.008;2023-08-06T11:18:28;1.43;;;0.40;;
3333;SDS011;1679;50.392;8.008;2023-08-06T11:20:54;0.90;;;0.40;;
3333;SDS011;1679;50.392;8.008;2023-08-06T11:23:19;0.80;;;0.40;;
3333;SDS011;1679;50.392;8.008;2023-08-06T11:25:45;0.70;;;0.40;;
3333;SDS011;1679;50.392;8.008;2023-08-06T11:28:12;1.27;;;0.53;;
3333;SDS011;1679;50.392;8.008;2023-08-06T11:30:38;3.43;;;0.40;;
3333;SDS011;1679;50.392;8.008;2023-08-06T11:33:03;0.90;;;0.67;;
3333;SDS011;1679;50.392;8.008;2023-08-06T11:35:34;0.80;;;0.50;;
3333;SDS011;1679;50.392;8.008;2023-08-06T11:38:00;0.90;;;0.50;;
3333;SDS011;1679;50.392;8.008;2023-08-06T11:40:26;1.10;;;0.40;;
3333;SDS011;1679;50.392;8.008;2023-08-06T11:42:53;0.67;;;0.37;;
3333;SDS011;1679;50.392;8.008;2023-08-06T11:45:21;0.73;;;0.40;;
3333;SDS011;1679;50.392;8.008;2023-08-06T11:47:51;0.70;;;0.50;;
3333;SDS011;1679;50.392;8.008;2023-08-06T11:50:24;1.03;;;0.57;;
3333;SDS011;1679;50.392;8.008;2023-08-06T11:52:57;1.30;;;0.80;;
3333;SDS011;1679;50.392;8.008;2023-08-06T11:55:25;0.90;;;0.73;;
3333;SDS011;1679;50.392;8.008;2023-08-06T11:57:53;1.00;;;0.53;;
3333;SDS011;1679;50.392;8.008;2023-08-06T12:00:19;1.67;;;0.60;;
3333;SDS011;1679;50.392;8.008;2023-08-06T12:02:47;0.90;;;0.70;;
3333;SDS011;1679;50.392;8.008;2023-08-06T12:05:15;0.80;;;0.70;;
3333;SDS011;1679;50.392;8.008;2023-08-06T12:10:12;1.00;;;0.70;;
3333;SDS011;1679;50.392;8.008;2023-08-06T12:12:38;1.30;;;0.67;;
3333;SDS011;1679;50.392;8.008;2023-08-06T12:15:05;0.90;;;0.50;;
3333;SDS011;1679;50.392;8.008;2023-08-06T12:17:31;1.20;;;0.90;;
3333;SDS011;1679;50.392;8.008;2023-08-06T12:19:57;1.00;;;0.60;;
3333;SDS011;1679;50.392;8.008;2023-08-06T12:22:23;1.73;;;0.70;;
3333;SDS011;1679;50.392;8.008;2023-08-06T12:24:49;1.00;;;0.90;;
3333;SDS011;1679;50.392;8.008;2023-08-06T12:27:14;0.90;;;0.63;;
3333;SDS011;1679;50.392;8.008;2023-08-06T12:29:42;1.83;;;0.70;;
3333;SDS011;1679;50.392;8.008;2023-08-06T12:32:12;1.50;;;0.70;;
3333;SDS011;1679;50.392;8.008;2023-08-06T12:34:39;1.00;;;0.60;;
3333;SDS011;1679;50.392;8.008;2023-08-06T12:37:06;1.03;;;0.70;;
3333;SDS011;1679;50.392;8.008;2023-08-06T12:39:35;1.80;;;0.73;;
3333;SDS011;1679;50.392;8.008;2023-08-06T12:42:02;0.90;;;0.70;;
3333;SDS011;1679;50.392;8.008;2023-08-06T12:44:30;0.97;;;0.63;;
3333;SDS011;1679;50.392;8.008;2023-08-06T12:46:56;0.97;;;0.60;;
3333;SDS011;1679;50.392;8.008;2023-08-06T12:49:22;1.30;;;0.60;;
3333;SDS011;1679;50.392;8.008;2023-08-06T12:51:48;1.03;;;0.60;;
3333;SDS011;1679;50.392;8.008;2023-08-06T12:54:14;1.20;;;0.57;;
3333;SDS011;1679;50.392;8.008;2023-08-06T12:56:46;0.93;;;0.67;;
3333;SDS011;1679;50.392;8.008;2023-08-06T12:59:13;0.80;;;0.60;;
3333;SDS011;1679;50.392;8.008;2023-08-06T13:01:39;1.00;;;0.57;;
3333;SDS011;1679;50.392;8.008;2023-08-06T13:04:05;0.77;;;0.60;;
3333;SDS011;1679;50.392;8.008;2023-08-06T13:06:30;2.10;;;0.83;;
3333;SDS011;1679;50.392;8.008;2023-08-06T13:09:00;1.37;;;0.80;;
3333;SDS011;1679;50.392;8.008;2023-08-06T13:11:26;0.83;;;0.63;;
3333;SDS011;1679;50.392;8.008;2023-08-06T13:13:52;1.37;;;0.80;;
3333;SDS011;1679;50.392;8.008;2023-08-06T13:16:17;0.87;;;0.57;;
3333;SDS011;1679;50.392;8.008;2023-08-06T13:18:43;1.30;;;0.60;;
3333;SDS011;1679;50.392;8.008;2023-08-06T13:21:09;1.27;;;0.70;;
3333;SDS011;1679;50.392;8.008;2023-08-06T13:23:35;1.00;;;0.50;;
3333;SDS011;1679;50.392;8.008;2023-08-06T13:26:01;1.00;;;0.40;;
3333;SDS011;1679;50.392;8.008;2023-08-06T13:28:27;0.90;;;0.60;;
3333;SDS011;1679;50.392;8.008;2023-08-06T13:30:52;1.27;;;0.40;;
3333;SDS011;1679;50.392;8.008;2023-08-06T13:33:18;1.00;;;0.50;;
3333;SDS011;1679;50.392;8.008;2023-08-06T13:35:43;0.80;;;0.50;;
3333;SDS011;1679;50.392;8.008;2023-08-06T13:38:10;0.80;;;0.40;;
3333;SDS011;1679;50.392;8.008;2023-08-06T13:40:37;0.80;;;0.50;;
3333;SDS011;1679;50.392;8.008;2023-08-06T13:43:02;0.80;;;0.50;;
3333;SDS011;1679;50.392;8.008;2023-08-06T13:45:28;1.97;;;0.70;;
3333;SDS011;1679;50.392;8.008;2023-08-06T13:47:56;1.13;;;0.50;;
3333;SDS011;1679;50.392;8.008;2023-08-06T13:50:21;0.80;;;0.50;;
3333;SDS011;1679;50.392;8.008;2023-08-06T13:52:50;1.50;;;0.40;;
3333;SDS011;1679;50.392;8.008;2023-08-06T13:55:16;0.90;;;0.60;;
3333;SDS011;1679;50.392;8.008;2023-08-06T13:57:41;2.70;;;0.60;;
3333;SDS011;1679;50.392;8.008;2023-08-06T14:00:08;1.00;;;0.50;;
3333;SDS011;1679;50.392;8.008;2023-08-06T14:02:34;0.70;;;0.40;;
3333;SDS011;1679;50.392;8.008;2023-08-06T14:04:59;2.60;;;0.40;;
3333;SDS011;1679;50.392;8.008;2023-08-06T14:07:26;0.80;;;0.40;;
3333;SDS011;1679;50.392;8.008;2023-08-06T14:10:04;0.80;;;0.50;;
3333;SDS011;1679;50.392;8.008;2023-08-06T14:12:31;1.10;;;0.60;;
3333;SDS011;1679;50.392;8.008;2023-08-06T14:14:56;1.67;;;0.60;;
3333;SDS011;1679;50.392;8.008;2023-08-06T14:17:22;2.13;;;0.50;;
3333;SDS011;1679;50.392;8.008;2023-08-06T14:19:48;0.80;;;0.60;;
3333;SDS011;1679;50.392;8.008;2023-08-06T14:22:15;0.70;;;0.40;;
3333;SDS011;1679;50.392;8.008;2023-08-06T14:24:40;1.33;;;0.40;;
3333;SDS011;1679;50.392;8.008;2023-08-06T14:27:07;0.80;;;0.40;;
3333;SDS011;1679;50.392;8.008;2023-08-06T14:29:32;0.70;;;0.40;;
3333;SDS011;1679;50.392;8.008;2023-08-06T14:31:59;0.97;;;0.87;;
3333;SDS011;1679;50.392;8.008;2023-08-06T14:34:24;1.00;;;0.50;;
3333;SDS011;1679;50.392;8.008;2023-08-06T14:36:50;1.17;;;0.60;;
3333;SDS011;1679;50.392;8.008;2023-08-06T14:39:16;1.67;;;0.70;;
3333;SDS011;1679;50.392;8.008;2023-08-06T14:41:41;0.80;;;0.70;;
3333;SDS011;1679;50.392;8.008;2023-08-06T14:44:07;1.83;;;0.70;;
3333;SDS011;1679;50.392;8.008;2023-08-06T14:46:32;1.47;;;0.70;;
3333;SDS011;1679;50.392;8.008;2023-08-06T14:48:58;1.90;;;0.80;;
3333;SDS011;1679;50.392;8.008;2023-08-06T14:51:23;1.40;;;0.80;;
3333;SDS011;1679;50.392;8.008;2023-08-06T14:53:49;1.00;;;0.90;;
3333;SDS011;1679;50.392;8.008;2023-08-06T14:56:15;1.40;;;1.00;;
3333;SDS011;1679;50.392;8.008;2023-08-06T14:58:46;1.67;;;1.03;;
3333;SDS011;1679;50.392;8.008;2023-08-06T15:06:17;1.63;;;0.80;;
3333;SDS011;1679;50.392;8.008;2023-08-06T15:08:42;1.27;;;0.90;;
3333;SDS011;1679;50.392;8.008;2023-08-06T15:11:12;1.30;;;0.80;;
3333;SDS011;1679;50.392;8.008;2023-08-06T15:13:39;0.90;;;0.60;;
3333;SDS011;1679;50.392;8.008;2023-08-06T15:16:07;1.80;;;0.60;;
3333;SDS011;1679;50.392;8.008;2023-08-06T15:18:33;0.70;;;0.60;;
3333;SDS011;1679;50.392;8.008;2023-08-06T15:20:59;1.37;;;0.70;;
3333;SDS011;1679;50.392;8.008;2023-08-06T15:23:24;1.80;;;0.70;;
3333;SDS011;1679;50.392;8.008;2023-08-06T15:25:50;1.63;;;0.60;;
3333;SDS011;1679;50.392;8.008;2023-08-06T15:28:16;2.97;;;0.70;;